SLI338 MMGL-MMAA
Flight info
| Callsign | SLI338 |
|---|---|
| Flight time | 0h 57m |
| Altitude | 39000 |
| Route | EMIRI1B EMIRI DCT ZIH J1 AVURO AVURO1B |
| Aircraft | B738/M-SDE2E3FGHIRWXY/LB1 |
Departure
| Time | 2026-05-06 05:11 |
|---|---|
| Airport | Guadalajara International Airport (MMGL) |
Arrival
| Time | 2026-05-06 06:09 |
|---|---|
| Airport | General Juan N. Álvarez International Airport (MMAA) |
| Time | Latitude | Longitude | Altitude | Speed | Heading |
|---|---|---|---|---|---|
| 2026-05-06 04:53 | 20.52243 | -103.29902 | 5026 ft | 0 kts | 199° |
| 2026-05-06 04:56 | 20.52254 | -103.29898 | 5028 ft | 3 kts | 199° |
| 2026-05-06 04:56 | 20.52272 | -103.29892 | 5028 ft | 3 kts | 199° |
| 2026-05-06 04:56 | 20.52288 | -103.29884 | 5028 ft | 3 kts | 239° |
| 2026-05-06 04:57 | 20.52291 | -103.29867 | 5028 ft | 1 kts | 290° |
| 2026-05-06 04:57 | 20.52291 | -103.29866 | 5028 ft | 0 kts | 290° |
| 2026-05-06 05:05 | 20.52301 | -103.29898 | 5026 ft | 9 kts | 283° |
| 2026-05-06 05:05 | 20.52329 | -103.29960 | 5026 ft | 9 kts | 287° |
| 2026-05-06 05:05 | 20.52319 | -103.30015 | 5028 ft | 8 kts | 220° |
| 2026-05-06 05:05 | 20.52272 | -103.30040 | 5028 ft | 7 kts | 203° |
| 2026-05-06 05:06 | 20.52225 | -103.30058 | 5027 ft | 7 kts | 197° |
| 2026-05-06 05:06 | 20.52181 | -103.30039 | 5027 ft | 7 kts | 133° |
| 2026-05-06 05:06 | 20.52154 | -103.29997 | 5026 ft | 7 kts | 111° |
| 2026-05-06 05:06 | 20.52137 | -103.29950 | 5025 ft | 7 kts | 110° |
| 2026-05-06 05:07 | 20.52120 | -103.29905 | 5026 ft | 7 kts | 112° |
| 2026-05-06 05:07 | 20.52103 | -103.29860 | 5024 ft | 6 kts | 112° |
| 2026-05-06 05:07 | 20.52086 | -103.29816 | 5028 ft | 6 kts | 112° |
| 2026-05-06 05:07 | 20.52069 | -103.29773 | 5028 ft | 6 kts | 112° |
| 2026-05-06 05:08 | 20.52052 | -103.29731 | 5028 ft | 6 kts | 113° |
| 2026-05-06 05:08 | 20.52034 | -103.29691 | 5028 ft | 6 kts | 118° |
| 2026-05-06 05:08 | 20.52011 | -103.29648 | 5028 ft | 9 kts | 121° |
| 2026-05-06 05:08 | 20.51970 | -103.29571 | 5029 ft | 17 kts | 121° |
| 2026-05-06 05:09 | 20.51882 | -103.29437 | 5029 ft | 24 kts | 127° |
| 2026-05-06 05:09 | 20.51779 | -103.29290 | 5027 ft | 24 kts | 128° |
| 2026-05-06 05:09 | 20.51695 | -103.29179 | 5026 ft | 15 kts | 143° |
| 2026-05-06 05:09 | 20.51596 | -103.29187 | 5028 ft | 15 kts | 204° |
| 2026-05-06 05:10 | 20.51503 | -103.29231 | 5027 ft | 14 kts | 204° |
| 2026-05-06 05:10 | 20.51431 | -103.29291 | 5023 ft | 13 kts | 255° |
| 2026-05-06 05:10 | 20.51433 | -103.29322 | 5023 ft | 0 kts | 282° |
| 2026-05-06 05:10 | 20.51493 | -103.29481 | 5028 ft | 62 kts | 294° |
| 2026-05-06 05:11 | 20.51776 | -103.30165 | 5026 ft | 137 kts | 294° |
| 2026-05-06 05:11 | 20.52271 | -103.31292 | 5149 ft | 191 kts | 295° |
| 2026-05-06 05:11 | 20.52870 | -103.32640 | 5886 ft | 205 kts | 294° |
| 2026-05-06 05:11 | 20.53447 | -103.34028 | 6834 ft | 207 kts | 292° |
| 2026-05-06 05:12 | 20.54055 | -103.35514 | 7160 ft | 231 kts | 292° |
| 2026-05-06 05:12 | 20.54722 | -103.37143 | 7566 ft | 246 kts | 293° |
| 2026-05-06 05:12 | 20.55419 | -103.38825 | 8145 ft | 254 kts | 293° |
| 2026-05-06 05:12 | 20.56143 | -103.40567 | 8969 ft | 258 kts | 291° |
| 2026-05-06 05:13 | 20.56438 | -103.42504 | 9301 ft | 280 kts | 260° |
| 2026-05-06 05:13 | 20.55600 | -103.44412 | 9801 ft | 293 kts | 226° |
| 2026-05-06 05:13 | 20.53964 | -103.45748 | 10415 ft | 305 kts | 214° |
| 2026-05-06 05:13 | 20.52123 | -103.47063 | 10601 ft | 331 kts | 214° |
| 2026-05-06 05:14 | 20.50150 | -103.48490 | 10770 ft | 353 kts | 213° |
| 2026-05-06 05:14 | 20.47855 | -103.49569 | 10984 ft | 371 kts | 190° |
| 2026-05-06 05:14 | 20.45261 | -103.49453 | 11514 ft | 379 kts | 164° |
| 2026-05-06 05:14 | 20.42870 | -103.48251 | 12236 ft | 383 kts | 146° |
| 2026-05-06 05:15 | 20.40867 | -103.46389 | 13002 ft | 383 kts | 131° |
| 2026-05-06 05:15 | 20.39176 | -103.44214 | 13626 ft | 387 kts | 128° |
| 2026-05-06 05:15 | 20.37513 | -103.41922 | 14207 ft | 392 kts | 128° |
| 2026-05-06 05:15 | 20.35848 | -103.39605 | 14853 ft | 394 kts | 128° |
| 2026-05-06 05:16 | 20.34182 | -103.37277 | 15618 ft | 393 kts | 127° |
| 2026-05-06 05:16 | 20.32588 | -103.34914 | 16371 ft | 392 kts | 126° |
| 2026-05-06 05:16 | 20.31034 | -103.32536 | 17041 ft | 392 kts | 126° |
| 2026-05-06 05:16 | 20.29474 | -103.30138 | 17630 ft | 395 kts | 126° |
| 2026-05-06 05:17 | 20.27902 | -103.27722 | 18203 ft | 397 kts | 126° |
| 2026-05-06 05:17 | 20.26321 | -103.25304 | 18777 ft | 399 kts | 126° |
| 2026-05-06 05:17 | 20.24721 | -103.22871 | 19279 ft | 403 kts | 127° |
| 2026-05-06 05:17 | 20.23122 | -103.20449 | 19740 ft | 406 kts | 127° |
| 2026-05-06 05:18 | 20.21488 | -103.17982 | 20218 ft | 409 kts | 127° |
| 2026-05-06 05:18 | 20.19839 | -103.15494 | 20684 ft | 412 kts | 127° |
| 2026-05-06 05:18 | 20.18177 | -103.12988 | 21128 ft | 415 kts | 127° |
| 2026-05-06 05:18 | 20.16498 | -103.10458 | 21561 ft | 418 kts | 127° |
| 2026-05-06 05:19 | 20.14817 | -103.07923 | 21959 ft | 421 kts | 127° |
| 2026-05-06 05:19 | 20.13141 | -103.05402 | 22333 ft | 424 kts | 127° |
| 2026-05-06 05:19 | 20.11433 | -103.02831 | 22724 ft | 426 kts | 128° |
| 2026-05-06 05:19 | 20.09714 | -103.00246 | 23104 ft | 429 kts | 128° |
| 2026-05-06 05:20 | 20.07988 | -102.97651 | 23473 ft | 431 kts | 128° |
| 2026-05-06 05:20 | 20.06253 | -102.95043 | 23823 ft | 433 kts | 128° |
| 2026-05-06 05:20 | 20.04507 | -102.92419 | 24143 ft | 435 kts | 128° |
| 2026-05-06 05:20 | 20.02750 | -102.89783 | 24455 ft | 438 kts | 128° |
| 2026-05-06 05:21 | 20.00977 | -102.87122 | 24727 ft | 442 kts | 128° |
| 2026-05-06 05:21 | 19.99197 | -102.84450 | 25000 ft | 444 kts | 128° |
| 2026-05-06 05:21 | 19.97409 | -102.81766 | 25312 ft | 446 kts | 127° |
| 2026-05-06 05:21 | 19.95612 | -102.79070 | 25624 ft | 447 kts | 127° |
| 2026-05-06 05:22 | 19.93802 | -102.76356 | 25875 ft | 450 kts | 127° |
| 2026-05-06 05:22 | 19.91981 | -102.73628 | 26088 ft | 454 kts | 127° |
| 2026-05-06 05:22 | 19.90169 | -102.70915 | 26344 ft | 456 kts | 127° |
| 2026-05-06 05:22 | 19.88328 | -102.68158 | 26598 ft | 458 kts | 127° |
| 2026-05-06 05:23 | 19.86474 | -102.65384 | 26842 ft | 460 kts | 127° |
| 2026-05-06 05:23 | 19.84615 | -102.62603 | 27067 ft | 463 kts | 127° |
| 2026-05-06 05:23 | 19.80443 | -102.57400 | 27514 ft | 464 kts | 141° |
| 2026-05-06 05:24 | 19.77900 | -102.55346 | 27735 ft | 465 kts | 148° |
| 2026-05-06 05:24 | 19.75072 | -102.53683 | 27978 ft | 465 kts | 156° |
| 2026-05-06 05:24 | 19.72131 | -102.52225 | 28192 ft | 468 kts | 156° |
| 2026-05-06 05:24 | 19.69167 | -102.50781 | 28392 ft | 470 kts | 156° |
| 2026-05-06 05:25 | 19.66186 | -102.49330 | 28615 ft | 472 kts | 156° |
| 2026-05-06 05:25 | 19.63194 | -102.47864 | 28802 ft | 474 kts | 156° |
| 2026-05-06 05:25 | 19.60198 | -102.46383 | 29000 ft | 476 kts | 156° |
| 2026-05-06 05:25 | 19.57196 | -102.44890 | 29252 ft | 477 kts | 156° |
| 2026-05-06 05:26 | 19.54191 | -102.43391 | 29585 ft | 476 kts | 156° |
| 2026-05-06 05:26 | 19.51203 | -102.41897 | 29913 ft | 474 kts | 156° |
| 2026-05-06 05:26 | 19.48215 | -102.40401 | 30174 ft | 475 kts | 156° |
| 2026-05-06 05:26 | 19.45222 | -102.38906 | 30459 ft | 475 kts | 156° |
| 2026-05-06 05:27 | 19.42235 | -102.37414 | 30834 ft | 474 kts | 156° |
| 2026-05-06 05:27 | 19.39255 | -102.35927 | 31238 ft | 472 kts | 156° |
| 2026-05-06 05:27 | 19.36327 | -102.34466 | 31593 ft | 471 kts | 156° |
| 2026-05-06 05:27 | 19.33364 | -102.32989 | 31905 ft | 471 kts | 156° |
| 2026-05-06 05:28 | 19.30402 | -102.31514 | 32232 ft | 470 kts | 156° |
| 2026-05-06 05:28 | 19.27446 | -102.30041 | 32582 ft | 469 kts | 156° |
| 2026-05-06 05:28 | 19.24493 | -102.28571 | 32950 ft | 468 kts | 156° |
| 2026-05-06 05:28 | 19.21551 | -102.27106 | 33307 ft | 467 kts | 156° |
| 2026-05-06 05:29 | 19.18613 | -102.25644 | 33628 ft | 466 kts | 156° |
| 2026-05-06 05:29 | 19.15676 | -102.24183 | 33964 ft | 466 kts | 156° |
| 2026-05-06 05:29 | 19.12746 | -102.22726 | 34293 ft | 465 kts | 157° |
| 2026-05-06 05:29 | 19.09821 | -102.21272 | 34623 ft | 464 kts | 156° |
| 2026-05-06 05:30 | 19.06897 | -102.19820 | 34939 ft | 464 kts | 156° |
| 2026-05-06 05:30 | 19.03976 | -102.18370 | 35252 ft | 463 kts | 156° |
| 2026-05-06 05:30 | 19.01063 | -102.16924 | 35534 ft | 462 kts | 156° |
| 2026-05-06 05:30 | 18.98158 | -102.15482 | 35815 ft | 463 kts | 156° |
| 2026-05-06 05:31 | 18.95249 | -102.14039 | 36113 ft | 462 kts | 156° |
| 2026-05-06 05:31 | 18.92374 | -102.12615 | 36402 ft | 461 kts | 156° |
| 2026-05-06 05:31 | 18.89465 | -102.11174 | 36650 ft | 462 kts | 156° |
| 2026-05-06 05:31 | 18.86554 | -102.09733 | 36903 ft | 461 kts | 156° |
| 2026-05-06 05:32 | 18.83660 | -102.08299 | 37290 ft | 457 kts | 156° |
| 2026-05-06 05:32 | 18.80797 | -102.06881 | 37702 ft | 453 kts | 156° |
| 2026-05-06 05:32 | 18.77951 | -102.05473 | 38027 ft | 451 kts | 156° |
| 2026-05-06 05:32 | 18.75109 | -102.04067 | 38238 ft | 451 kts | 156° |
| 2026-05-06 05:33 | 18.72257 | -102.02657 | 38382 ft | 453 kts | 156° |
| 2026-05-06 05:33 | 18.69395 | -102.01243 | 38542 ft | 454 kts | 156° |
| 2026-05-06 05:33 | 18.66608 | -101.99866 | 38770 ft | 453 kts | 156° |
| 2026-05-06 05:33 | 18.63794 | -101.98477 | 39006 ft | 452 kts | 156° |
| 2026-05-06 05:34 | 18.60937 | -101.97067 | 39109 ft | 455 kts | 155° |
| 2026-05-06 05:34 | 18.58049 | -101.95640 | 39110 ft | 456 kts | 155° |
| 2026-05-06 05:34 | 18.52336 | -101.92821 | 39094 ft | 454 kts | 155° |
| 2026-05-06 05:35 | 18.46625 | -101.90007 | 39080 ft | 451 kts | 155° |
| 2026-05-06 05:35 | 18.40957 | -101.87215 | 39065 ft | 449 kts | 155° |
| 2026-05-06 05:36 | 18.35292 | -101.84427 | 38966 ft | 449 kts | 155° |
| 2026-05-06 05:36 | 18.29633 | -101.81643 | 38956 ft | 448 kts | 155° |
| 2026-05-06 05:37 | 18.23980 | -101.78864 | 38944 ft | 448 kts | 155° |
| 2026-05-06 05:37 | 18.18322 | -101.76085 | 38933 ft | 449 kts | 155° |
| 2026-05-06 05:38 | 18.12684 | -101.73319 | 38913 ft | 451 kts | 155° |
| 2026-05-06 05:38 | 18.06977 | -101.70520 | 38906 ft | 452 kts | 155° |
| 2026-05-06 05:39 | 18.01289 | -101.67733 | 38896 ft | 454 kts | 155° |
| 2026-05-06 05:39 | 17.95560 | -101.64925 | 38889 ft | 455 kts | 155° |
| 2026-05-06 05:40 | 17.89801 | -101.62108 | 38880 ft | 456 kts | 155° |
| 2026-05-06 05:40 | 17.84030 | -101.59286 | 38872 ft | 457 kts | 155° |
| 2026-05-06 05:41 | 17.79228 | -101.56940 | 38870 ft | 457 kts | 155° |
| 2026-05-06 05:41 | 17.72530 | -101.53668 | 38862 ft | 457 kts | 156° |
| 2026-05-06 05:42 | 17.67701 | -101.51311 | 38855 ft | 456 kts | 156° |
| 2026-05-06 05:42 | 17.62091 | -101.48196 | 38847 ft | 457 kts | 142° |
| 2026-05-06 05:43 | 17.59815 | -101.45934 | 38868 ft | 457 kts | 131° |
| 2026-05-06 05:43 | 17.57982 | -101.43217 | 38855 ft | 458 kts | 118° |
| 2026-05-06 05:43 | 17.55127 | -101.37237 | 38862 ft | 458 kts | 117° |
| 2026-05-06 05:44 | 17.53718 | -101.34228 | 38675 ft | 461 kts | 117° |
| 2026-05-06 05:44 | 17.52290 | -101.31202 | 38156 ft | 463 kts | 117° |
| 2026-05-06 05:44 | 17.50853 | -101.28191 | 37561 ft | 461 kts | 117° |
| 2026-05-06 05:44 | 17.49425 | -101.25224 | 36972 ft | 461 kts | 118° |
| 2026-05-06 05:45 | 17.47976 | -101.22230 | 36360 ft | 460 kts | 118° |
| 2026-05-06 05:45 | 17.46527 | -101.19243 | 35722 ft | 460 kts | 118° |
| 2026-05-06 05:45 | 17.45074 | -101.16253 | 35008 ft | 461 kts | 118° |
| 2026-05-06 05:45 | 17.43618 | -101.13253 | 34290 ft | 463 kts | 118° |
| 2026-05-06 05:46 | 17.42155 | -101.10243 | 33560 ft | 465 kts | 119° |
| 2026-05-06 05:46 | 17.40679 | -101.07210 | 32800 ft | 467 kts | 118° |
| 2026-05-06 05:46 | 17.39201 | -101.04170 | 32019 ft | 469 kts | 118° |
| 2026-05-06 05:46 | 17.37716 | -101.01117 | 31205 ft | 470 kts | 118° |
| 2026-05-06 05:47 | 17.36273 | -100.98149 | 30399 ft | 472 kts | 118° |
| 2026-05-06 05:47 | 17.34800 | -100.95123 | 29535 ft | 473 kts | 118° |
| 2026-05-06 05:47 | 17.33302 | -100.92047 | 28602 ft | 474 kts | 118° |
| 2026-05-06 05:47 | 17.31800 | -100.88963 | 27694 ft | 474 kts | 118° |
| 2026-05-06 05:48 | 17.30311 | -100.85908 | 27038 ft | 467 kts | 117° |
| 2026-05-06 05:48 | 17.28854 | -100.82917 | 26363 ft | 462 kts | 117° |
| 2026-05-06 05:48 | 17.27403 | -100.79942 | 25697 ft | 456 kts | 117° |
| 2026-05-06 05:48 | 17.25969 | -100.77005 | 25054 ft | 450 kts | 117° |
| 2026-05-06 05:49 | 17.24553 | -100.74106 | 24391 ft | 445 kts | 117° |
| 2026-05-06 05:49 | 17.23154 | -100.71240 | 23757 ft | 438 kts | 117° |
| 2026-05-06 05:49 | 17.21772 | -100.68416 | 23258 ft | 430 kts | 117° |
| 2026-05-06 05:49 | 17.20429 | -100.65678 | 22924 ft | 418 kts | 117° |
| 2026-05-06 05:50 | 17.19101 | -100.62977 | 22328 ft | 414 kts | 117° |
| 2026-05-06 05:50 | 17.17806 | -100.60341 | 21700 ft | 411 kts | 117° |
| 2026-05-06 05:50 | 17.16501 | -100.57687 | 21087 ft | 407 kts | 117° |
| 2026-05-06 05:50 | 17.15210 | -100.55061 | 20469 ft | 404 kts | 117° |
| 2026-05-06 05:51 | 17.13928 | -100.52458 | 19860 ft | 400 kts | 117° |
| 2026-05-06 05:51 | 17.12660 | -100.49883 | 19263 ft | 396 kts | 117° |
| 2026-05-06 05:51 | 17.11403 | -100.47326 | 18648 ft | 393 kts | 117° |
| 2026-05-06 05:51 | 17.10155 | -100.44791 | 18047 ft | 390 kts | 117° |
| 2026-05-06 05:52 | 17.08937 | -100.42317 | 17523 ft | 386 kts | 117° |
| 2026-05-06 05:52 | 17.07714 | -100.39833 | 16922 ft | 383 kts | 117° |
| 2026-05-06 05:52 | 17.06499 | -100.37366 | 16330 ft | 380 kts | 117° |
| 2026-05-06 05:52 | 17.05293 | -100.34917 | 15741 ft | 378 kts | 117° |
| 2026-05-06 05:53 | 17.04093 | -100.32484 | 15152 ft | 375 kts | 117° |
| 2026-05-06 05:53 | 17.02896 | -100.30060 | 14572 ft | 373 kts | 116° |
| 2026-05-06 05:53 | 17.01709 | -100.27652 | 13986 ft | 371 kts | 116° |
| 2026-05-06 05:53 | 17.00527 | -100.25261 | 13405 ft | 369 kts | 116° |
| 2026-05-06 05:54 | 16.99371 | -100.22915 | 12835 ft | 367 kts | 116° |
| 2026-05-06 05:54 | 16.98370 | -100.20461 | 12136 ft | 368 kts | 108° |
| 2026-05-06 05:54 | 16.97575 | -100.17929 | 11539 ft | 365 kts | 106° |
| 2026-05-06 05:54 | 16.96841 | -100.15396 | 11067 ft | 361 kts | 106° |
| 2026-05-06 05:55 | 16.96127 | -100.12925 | 10905 ft | 348 kts | 106° |
| 2026-05-06 05:55 | 16.95428 | -100.10551 | 10742 ft | 337 kts | 107° |
| 2026-05-06 05:55 | 16.94735 | -100.08253 | 10591 ft | 326 kts | 107° |
| 2026-05-06 05:55 | 16.94056 | -100.06031 | 10450 ft | 316 kts | 107° |
| 2026-05-06 05:56 | 16.93390 | -100.03872 | 10315 ft | 307 kts | 108° |
| 2026-05-06 05:56 | 16.92740 | -100.01780 | 10186 ft | 298 kts | 108° |
| 2026-05-06 05:56 | 16.92127 | -99.99806 | 10063 ft | 290 kts | 108° |
| 2026-05-06 05:56 | 16.91521 | -99.97852 | 9869 ft | 284 kts | 108° |
| 2026-05-06 05:57 | 16.90911 | -99.95890 | 9584 ft | 283 kts | 108° |
| 2026-05-06 05:57 | 16.90301 | -99.93935 | 9299 ft | 281 kts | 108° |
| 2026-05-06 05:57 | 16.89695 | -99.91991 | 9019 ft | 281 kts | 107° |
| 2026-05-06 05:57 | 16.89092 | -99.90050 | 8707 ft | 281 kts | 108° |
| 2026-05-06 05:58 | 16.88486 | -99.88110 | 8409 ft | 281 kts | 108° |
| 2026-05-06 05:58 | 16.87879 | -99.86166 | 8102 ft | 281 kts | 108° |
| 2026-05-06 05:58 | 16.87278 | -99.84245 | 7813 ft | 281 kts | 109° |
| 2026-05-06 05:58 | 16.86670 | -99.82304 | 7502 ft | 280 kts | 108° |
| 2026-05-06 05:59 | 16.86065 | -99.80372 | 7215 ft | 279 kts | 109° |
| 2026-05-06 05:59 | 16.85482 | -99.78507 | 7126 ft | 260 kts | 109° |
| 2026-05-06 05:59 | 16.84944 | -99.76778 | 6966 ft | 240 kts | 108° |
| 2026-05-06 05:59 | 16.84442 | -99.75175 | 6833 ft | 224 kts | 109° |
| 2026-05-06 06:00 | 16.83970 | -99.73656 | 6373 ft | 224 kts | 109° |
| 2026-05-06 06:00 | 16.83492 | -99.72135 | 5998 ft | 222 kts | 109° |
| 2026-05-06 06:00 | 16.83022 | -99.70633 | 5733 ft | 213 kts | 109° |
| 2026-05-06 06:00 | 16.82569 | -99.69188 | 5489 ft | 205 kts | 109° |
| 2026-05-06 06:01 | 16.82126 | -99.67779 | 5286 ft | 204 kts | 109° |
| 2026-05-06 06:01 | 16.81681 | -99.66365 | 5095 ft | 208 kts | 109° |
| 2026-05-06 06:01 | 16.81227 | -99.64915 | 4887 ft | 212 kts | 109° |
| 2026-05-06 06:01 | 16.80772 | -99.63452 | 4654 ft | 211 kts | 109° |
| 2026-05-06 06:02 | 16.80321 | -99.62016 | 4429 ft | 210 kts | 109° |
| 2026-05-06 06:02 | 16.79870 | -99.60576 | 4266 ft | 205 kts | 108° |
| 2026-05-06 06:02 | 16.79437 | -99.59198 | 4178 ft | 194 kts | 109° |
| 2026-05-06 06:02 | 16.79026 | -99.57896 | 4089 ft | 185 kts | 109° |
| 2026-05-06 06:03 | 16.78334 | -99.56790 | 3971 ft | 185 kts | 147° |
| 2026-05-06 06:03 | 16.77114 | -99.56479 | 3787 ft | 183 kts | 191° |
| 2026-05-06 06:03 | 16.75901 | -99.56857 | 3603 ft | 183 kts | 199° |
| 2026-05-06 06:03 | 16.74687 | -99.57264 | 3374 ft | 181 kts | 199° |
| 2026-05-06 06:04 | 16.73496 | -99.57663 | 3141 ft | 178 kts | 199° |
| 2026-05-06 06:04 | 16.72346 | -99.58052 | 2924 ft | 175 kts | 199° |
| 2026-05-06 06:04 | 16.71270 | -99.58608 | 2696 ft | 172 kts | 229° |
| 2026-05-06 06:04 | 16.70972 | -99.59689 | 2574 ft | 150 kts | 282° |
| 2026-05-06 06:05 | 16.71227 | -99.60723 | 2388 ft | 146 kts | 281° |
| 2026-05-06 06:05 | 16.71459 | -99.61733 | 2305 ft | 143 kts | 287° |
| 2026-05-06 06:05 | 16.71767 | -99.62725 | 2120 ft | 144 kts | 288° |
| 2026-05-06 06:05 | 16.72078 | -99.63715 | 1927 ft | 143 kts | 288° |
| 2026-05-06 06:06 | 16.72386 | -99.64697 | 1736 ft | 142 kts | 288° |
| 2026-05-06 06:06 | 16.72685 | -99.65667 | 1556 ft | 142 kts | 288° |
| 2026-05-06 06:06 | 16.72990 | -99.66646 | 1371 ft | 142 kts | 287° |
| 2026-05-06 06:06 | 16.73293 | -99.67624 | 1174 ft | 141 kts | 288° |
| 2026-05-06 06:07 | 16.73596 | -99.68597 | 991 ft | 141 kts | 288° |
| 2026-05-06 06:07 | 16.73898 | -99.69571 | 804 ft | 140 kts | 288° |
| 2026-05-06 06:07 | 16.74200 | -99.70540 | 622 ft | 140 kts | 288° |
| 2026-05-06 06:07 | 16.74500 | -99.71507 | 427 ft | 140 kts | 288° |
| 2026-05-06 06:08 | 16.74797 | -99.72460 | 253 ft | 140 kts | 288° |
| 2026-05-06 06:08 | 16.75097 | -99.73424 | 67 ft | 140 kts | 288° |
| 2026-05-06 06:08 | 16.75379 | -99.74333 | 19 ft | 111 kts | 288° |
| 2026-05-06 06:08 | 16.75556 | -99.74889 | 21 ft | 60 kts | 282° |
| 2026-05-06 06:09 | 16.75727 | -99.75073 | 19 ft | 26 kts | 341° |
| 2026-05-06 06:09 | 16.75878 | -99.75127 | 19 ft | 26 kts | 339° |
| 2026-05-06 06:09 | 16.75950 | -99.75158 | 19 ft | 9 kts | 331° |
| 2026-05-06 06:09 | 16.75987 | -99.75203 | 19 ft | 8 kts | 285° |
| 2026-05-06 06:10 | 16.75979 | -99.75268 | 19 ft | 10 kts | 252° |
| 2026-05-06 06:10 | 16.75970 | -99.75335 | 19 ft | 8 kts | 278° |
| 2026-05-06 06:10 | 16.75985 | -99.75401 | 19 ft | 7 kts | 289° |
| 2026-05-06 06:10 | 16.76010 | -99.75453 | 19 ft | 1 kts | 322° |
| 2026-05-06 06:11 | 16.76028 | -99.75456 | 19 ft | 5 kts | 359° |
| 2026-05-06 06:11 | 16.76063 | -99.75449 | 19 ft | 5 kts | 16° |
| 2026-05-06 06:11 | 16.76094 | -99.75439 | 21 ft | 5 kts | 17° |
| 2026-05-06 06:11 | 16.76097 | -99.75438 | 19 ft | 0 kts | 17° |